createdAt,value
2017-11-05T00:00:37.271Z,0.00
2017-11-05T00:01:37.215Z,0.00
2017-11-05T00:02:37.140Z,0.00
2017-11-05T00:03:37.081Z,0.00
2017-11-05T00:04:37.021Z,0.00
2017-11-05T00:05:36.964Z,0.00
2017-11-05T00:06:36.899Z,0.00
2017-11-05T00:07:36.838Z,0.00
2017-11-05T00:08:36.779Z,0.00
2017-11-05T00:09:36.737Z,0.00
2017-11-05T00:10:36.674Z,0.00
2017-11-05T00:11:36.608Z,0.00
2017-11-05T00:12:36.551Z,0.00
2017-11-05T00:13:36.494Z,0.00
2017-11-05T00:14:36.439Z,0.00
2017-11-05T00:15:36.385Z,0.00
2017-11-05T00:16:36.331Z,0.00
2017-11-05T00:17:36.256Z,0.00
2017-11-05T00:18:36.190Z,0.00
2017-11-05T00:19:36.143Z,0.00
2017-11-05T00:20:36.064Z,0.00
2017-11-05T00:21:36.033Z,0.00
2017-11-05T00:22:35.966Z,0.00
2017-11-05T00:23:35.914Z,0.00
2017-11-05T00:24:35.834Z,0.00
2017-11-05T00:25:35.776Z,0.00
2017-11-05T00:26:35.718Z,0.00
2017-11-05T00:27:35.665Z,0.00
2017-11-05T00:28:35.609Z,0.00
2017-11-05T00:29:35.555Z,0.00
2017-11-05T00:30:35.478Z,0.00
2017-11-05T00:31:35.416Z,0.00
2017-11-05T00:32:35.364Z,0.00
2017-11-05T00:33:35.300Z,0.00
2017-11-05T00:34:35.233Z,0.00
2017-11-05T00:35:35.175Z,0.00
2017-11-05T00:36:35.118Z,0.00
2017-11-05T00:37:35.066Z,0.00
2017-11-05T00:38:35.028Z,0.00
2017-11-05T00:39:34.948Z,0.00
2017-11-05T00:40:34.889Z,0.00
2017-11-05T00:41:34.833Z,0.00
2017-11-05T00:42:34.779Z,0.00
2017-11-05T00:43:34.701Z,0.00
2017-11-05T00:44:34.646Z,0.00
2017-11-05T00:45:34.584Z,0.00
2017-11-05T00:46:34.526Z,0.00
2017-11-05T00:47:34.481Z,0.00
2017-11-05T00:48:34.417Z,0.00
2017-11-05T00:49:34.342Z,0.00
2017-11-05T00:50:34.285Z,0.00
2017-11-05T00:51:34.237Z,0.00
2017-11-05T00:52:34.169Z,0.00
2017-11-05T00:53:34.115Z,0.00
2017-11-05T00:54:34.059Z,0.00
2017-11-05T00:55:34.023Z,0.00
2017-11-05T00:56:33.934Z,0.00
2017-11-05T00:57:33.878Z,0.00
2017-11-05T00:58:33.810Z,0.00
2017-11-05T00:59:33.746Z,0.00
2017-11-05T01:00:33.684Z,0.00
2017-11-05T01:01:33.626Z,0.00
2017-11-05T01:02:33.569Z,0.00
2017-11-05T01:03:33.515Z,0.00
2017-11-05T01:04:33.459Z,0.00
2017-11-05T01:05:33.402Z,0.00
2017-11-05T01:06:33.337Z,0.00
2017-11-05T01:07:33.284Z,0.00
2017-11-05T01:08:33.229Z,0.00
2017-11-05T01:09:33.151Z,0.00
2017-11-05T01:10:33.094Z,0.00
2017-11-05T01:11:33.045Z,0.00
2017-11-05T01:12:32.974Z,0.00
2017-11-05T01:13:32.914Z,0.00
2017-11-05T01:14:32.851Z,0.00
2017-11-05T01:15:32.793Z,0.00
2017-11-05T01:16:32.744Z,0.00
2017-11-05T01:17:32.687Z,0.00
2017-11-05T01:18:32.618Z,0.00
2017-11-05T01:19:32.564Z,0.00
2017-11-05T01:20:32.508Z,0.00
2017-11-05T01:21:32.476Z,0.00
2017-11-05T01:22:32.379Z,0.00
2017-11-05T01:23:32.345Z,0.00
2017-11-05T01:24:32.257Z,0.00
2017-11-05T01:25:32.200Z,0.00
2017-11-05T01:26:32.132Z,0.00
2017-11-05T01:27:32.073Z,0.00
2017-11-05T01:28:32.017Z,0.00
2017-11-05T01:29:31.959Z,0.00
2017-11-05T01:30:31.902Z,0.00
2017-11-05T01:31:31.842Z,0.00
2017-11-05T01:32:31.787Z,0.00
2017-11-05T01:33:31.718Z,0.00
2017-11-05T01:34:31.677Z,0.00
2017-11-05T01:35:31.601Z,0.00
2017-11-05T01:36:31.545Z,0.00
2017-11-05T01:37:31.484Z,0.00
2017-11-05T01:38:31.419Z,0.00
2017-11-05T01:39:31.355Z,0.00
2017-11-05T01:40:31.297Z,0.00
2017-11-05T01:41:31.241Z,0.00
2017-11-05T01:42:31.194Z,0.00
2017-11-05T01:43:31.121Z,0.00
2017-11-05T01:44:31.074Z,0.00
2017-11-05T01:45:31.013Z,0.00
2017-11-05T01:46:30.957Z,0.00
2017-11-05T01:47:30.881Z,0.00
2017-11-05T01:48:30.822Z,0.00
2017-11-05T01:49:30.766Z,0.00
2017-11-05T01:50:30.702Z,0.00
2017-11-05T01:51:30.636Z,0.00
2017-11-05T01:52:30.583Z,0.00
2017-11-05T01:53:30.522Z,0.00
2017-11-05T01:54:30.461Z,0.00
2017-11-05T01:55:30.403Z,0.00
2017-11-05T01:56:30.346Z,0.00
2017-11-05T01:57:30.291Z,0.00
2017-11-05T01:58:30.222Z,0.00
2017-11-05T01:59:30.180Z,0.00
2017-11-05T02:00:30.121Z,0.00
2017-11-05T02:01:30.044Z,0.00
2017-11-05T02:02:29.984Z,0.00
2017-11-05T02:03:29.920Z,0.00
2017-11-05T02:04:29.857Z,0.00
2017-11-05T02:05:29.800Z,0.00
2017-11-05T02:06:29.743Z,0.00
2017-11-05T02:07:29.684Z,0.00
2017-11-05T02:08:29.626Z,0.00
2017-11-05T02:09:29.571Z,0.00
2017-11-05T02:10:29.515Z,0.00
2017-11-05T02:11:29.445Z,0.00
2017-11-05T02:12:29.400Z,0.00
2017-11-05T02:13:29.326Z,0.00
2017-11-05T02:14:29.269Z,0.00
2017-11-05T02:15:29.206Z,0.00
2017-11-05T02:16:29.137Z,0.00
2017-11-05T02:17:29.079Z,0.00
2017-11-05T02:18:29.032Z,0.00
2017-11-05T02:19:28.965Z,0.00
2017-11-05T02:20:28.906Z,0.00
2017-11-05T02:21:28.851Z,0.00
2017-11-05T02:22:28.794Z,0.00
2017-11-05T02:23:28.743Z,0.00
2017-11-05T02:24:28.661Z,0.00
2017-11-05T02:25:28.605Z,0.00
2017-11-05T02:26:28.546Z,0.00
2017-11-05T02:27:28.486Z,0.00
2017-11-05T02:28:28.424Z,0.00
2017-11-05T02:29:28.359Z,0.00
2017-11-05T02:30:28.302Z,0.00
2017-11-05T02:31:28.244Z,0.00
2017-11-05T02:32:28.188Z,0.00
2017-11-05T02:33:28.132Z,0.00
2017-11-05T02:34:28.076Z,0.00
2017-11-05T02:35:28.020Z,0.00
2017-11-05T02:36:27.966Z,0.00
2017-11-05T02:37:27.888Z,0.00
2017-11-05T02:38:27.833Z,0.00
2017-11-05T02:39:27.768Z,0.00
2017-11-05T02:40:27.700Z,0.00
2017-11-05T02:41:27.642Z,0.00
2017-11-05T02:42:27.605Z,0.00
2017-11-05T02:43:27.526Z,0.00
2017-11-05T02:44:27.466Z,0.00
2017-11-05T02:45:27.408Z,0.00
2017-11-05T02:46:27.352Z,0.00
2017-11-05T02:47:27.300Z,0.00
2017-11-05T02:48:27.244Z,0.00
2017-11-05T02:49:27.165Z,0.00
2017-11-05T02:50:27.107Z,0.00
2017-11-05T02:51:27.048Z,0.00
2017-11-05T02:52:27.028Z,0.00
2017-11-05T02:53:26.921Z,0.00
2017-11-05T02:54:26.872Z,0.00
2017-11-05T02:55:26.825Z,0.00
2017-11-05T02:56:26.747Z,0.00
2017-11-05T02:57:26.694Z,0.00
2017-11-05T02:58:26.632Z,0.00
2017-11-05T02:59:26.577Z,0.00
2017-11-05T03:00:26.527Z,0.00
2017-11-05T03:01:26.442Z,0.00
2017-11-05T03:02:26.386Z,0.00
2017-11-05T03:03:26.337Z,0.00
2017-11-05T03:04:26.261Z,0.00
2017-11-05T03:05:26.199Z,0.00
2017-11-05T03:06:26.142Z,0.00
2017-11-05T03:07:26.086Z,0.00
2017-11-05T03:08:26.025Z,0.00
2017-11-05T03:09:25.973Z,0.00
2017-11-05T03:10:25.912Z,0.00
2017-11-05T03:11:25.856Z,0.00
2017-11-05T03:12:25.801Z,0.00
2017-11-05T03:13:25.726Z,0.00
2017-11-05T03:14:25.665Z,0.00
2017-11-05T03:15:25.606Z,0.00
2017-11-05T03:16:25.546Z,0.00
2017-11-05T03:17:25.480Z,0.00
2017-11-05T03:18:25.420Z,0.00
2017-11-05T03:19:25.364Z,0.00
2017-11-05T03:20:25.305Z,0.00
2017-11-05T03:21:25.246Z,0.00
2017-11-05T03:22:25.190Z,0.00
2017-11-05T03:23:25.135Z,0.00
2017-11-05T03:24:25.079Z,0.00
2017-11-05T03:25:25.006Z,0.00
2017-11-05T03:26:24.955Z,0.00
2017-11-05T03:27:24.886Z,0.00
2017-11-05T03:28:24.834Z,0.00
2017-11-05T03:29:24.759Z,0.00
2017-11-05T03:30:24.701Z,0.00
2017-11-05T03:31:24.645Z,0.00
2017-11-05T03:32:24.592Z,0.00
2017-11-05T03:33:24.527Z,0.00
2017-11-05T03:34:24.471Z,0.00
2017-11-05T03:35:24.415Z,0.00
2017-11-05T03:36:24.346Z,0.00
2017-11-05T03:37:24.290Z,0.00
2017-11-05T03:38:24.221Z,0.00
2017-11-05T03:39:24.167Z,0.00
2017-11-05T03:40:24.106Z,0.00
2017-11-05T03:41:24.049Z,0.00
2017-11-05T03:42:23.980Z,0.00
2017-11-05T03:43:23.927Z,0.00
2017-11-05T03:44:23.869Z,0.00
2017-11-05T03:45:23.810Z,0.00
2017-11-05T03:46:23.749Z,0.00
2017-11-05T03:47:23.694Z,0.00
2017-11-05T03:48:23.639Z,0.00
2017-11-05T03:49:23.584Z,0.00
2017-11-05T03:50:23.509Z,0.00
2017-11-05T03:51:23.447Z,0.00
2017-11-05T03:52:23.386Z,0.00
2017-11-05T03:53:23.327Z,0.00
2017-11-05T03:54:23.263Z,0.00
2017-11-05T03:55:23.203Z,0.00
2017-11-05T03:56:23.148Z,0.00
2017-11-05T03:57:23.087Z,0.00
2017-11-05T03:58:23.030Z,0.00
2017-11-05T03:59:22.974Z,0.00
2017-11-05T04:00:22.918Z,0.00
2017-11-05T04:01:22.853Z,0.00
2017-11-05T04:02:22.809Z,0.00
2017-11-05T04:03:22.733Z,0.00
2017-11-05T04:04:22.677Z,0.00
2017-11-05T04:05:22.609Z,0.00
2017-11-05T04:06:22.551Z,0.00
2017-11-05T04:07:22.487Z,0.00
2017-11-05T04:08:22.427Z,0.00
2017-11-05T04:09:22.369Z,0.00
2017-11-05T04:10:22.315Z,0.00
2017-11-05T04:11:22.252Z,0.00
2017-11-05T04:12:22.198Z,0.00
2017-11-05T04:13:22.146Z,0.00
2017-11-05T04:14:22.088Z,0.00
2017-11-05T04:15:22.011Z,0.00
2017-11-05T04:16:21.950Z,0.00
2017-11-05T04:17:21.890Z,0.00
2017-11-05T04:18:21.836Z,0.00
2017-11-05T04:19:21.766Z,0.00
2017-11-05T04:20:21.708Z,0.00
2017-11-05T04:21:21.650Z,0.00
2017-11-05T04:22:21.591Z,0.00
2017-11-05T04:23:21.535Z,0.00
2017-11-05T04:24:21.478Z,0.00
2017-11-05T04:25:21.422Z,0.00
2017-11-05T04:26:21.370Z,0.00
2017-11-05T04:27:21.312Z,0.00
2017-11-05T04:28:21.234Z,0.00
2017-11-05T04:29:21.174Z,0.00
2017-11-05T04:30:21.119Z,0.00
2017-11-05T04:31:21.048Z,0.00
2017-11-05T04:32:20.988Z,0.00
2017-11-05T04:33:20.933Z,0.00
2017-11-05T04:34:20.874Z,0.00
2017-11-05T04:35:20.815Z,0.00
2017-11-05T04:36:20.764Z,0.00
2017-11-05T04:37:20.702Z,0.00
2017-11-05T04:38:20.647Z,0.00
2017-11-05T04:39:20.592Z,0.00
2017-11-05T04:40:20.523Z,0.00
2017-11-05T04:41:20.456Z,0.00
2017-11-05T04:42:20.395Z,0.00
2017-11-05T04:43:20.336Z,0.00
2017-11-05T04:44:20.272Z,0.00
2017-11-05T04:45:20.213Z,0.00
2017-11-05T04:46:20.155Z,0.00
2017-11-05T04:47:20.097Z,0.00
2017-11-05T04:48:20.037Z,0.00
2017-11-05T04:49:19.985Z,0.00
2017-11-05T04:50:19.927Z,0.00
2017-11-05T04:51:19.871Z,0.00
2017-11-05T04:52:19.817Z,0.00
2017-11-05T04:53:19.744Z,0.00
2017-11-05T04:54:19.678Z,0.00
2017-11-05T04:55:19.620Z,0.00
2017-11-05T04:56:19.559Z,0.00
2017-11-05T04:57:19.493Z,0.00
2017-11-05T04:58:19.437Z,0.00
2017-11-05T04:59:19.377Z,0.00
2017-11-05T05:00:19.323Z,0.00
2017-11-05T05:01:19.262Z,0.00
2017-11-05T05:02:19.206Z,0.00
2017-11-05T05:03:19.150Z,0.00
2017-11-05T05:04:19.095Z,0.00
2017-11-05T05:05:19.049Z,0.00
2017-11-05T05:06:18.969Z,0.00
2017-11-05T05:07:18.902Z,0.00
2017-11-05T05:08:18.843Z,0.00
2017-11-05T05:09:18.784Z,0.00
2017-11-05T05:10:18.718Z,0.00
2017-11-05T05:11:18.670Z,0.00
2017-11-05T05:12:18.604Z,0.00
2017-11-05T05:13:18.544Z,0.00
2017-11-05T05:14:18.487Z,0.00
2017-11-05T05:15:18.431Z,0.00
2017-11-05T05:16:18.378Z,0.00
2017-11-05T05:17:18.320Z,0.00
2017-11-05T05:18:18.246Z,0.00
2017-11-05T05:19:18.185Z,0.00
2017-11-05T05:20:18.125Z,0.00
2017-11-05T05:21:18.067Z,0.00
2017-11-05T05:22:17.998Z,0.00
2017-11-05T05:23:17.941Z,0.00
2017-11-05T05:24:17.883Z,0.00
2017-11-05T05:25:17.825Z,0.00
2017-11-05T05:26:17.771Z,0.00
2017-11-05T05:27:17.710Z,0.00
2017-11-05T05:28:17.654Z,0.00
2017-11-05T05:29:17.600Z,0.00
2017-11-05T05:30:17.545Z,0.00
2017-11-05T05:31:17.470Z,0.00
2017-11-05T05:32:17.412Z,0.00
2017-11-05T05:33:17.352Z,0.00
2017-11-05T05:34:17.279Z,0.00
2017-11-05T05:35:17.223Z,0.00
2017-11-05T05:36:17.162Z,0.00
2017-11-05T05:37:17.108Z,0.00
2017-11-05T05:38:17.050Z,0.00
2017-11-05T05:39:16.989Z,0.00
2017-11-05T05:40:16.933Z,0.00
2017-11-05T05:41:16.882Z,0.00
2017-11-05T05:42:16.824Z,0.00
2017-11-05T05:43:16.757Z,0.00
2017-11-05T05:44:16.689Z,0.00
2017-11-05T05:45:16.629Z,0.00
2017-11-05T05:46:16.568Z,0.00
2017-11-05T05:47:16.504Z,0.00
2017-11-05T05:48:16.445Z,0.00
2017-11-05T05:49:16.391Z,0.00
2017-11-05T05:50:16.329Z,0.00
2017-11-05T05:51:16.272Z,0.00
2017-11-05T05:52:16.214Z,0.00
2017-11-05T05:53:16.159Z,0.00
2017-11-05T05:54:16.091Z,0.00
2017-11-05T05:55:16.048Z,0.00
2017-11-05T05:56:15.971Z,0.00
2017-11-05T05:57:15.912Z,0.00
2017-11-05T05:58:15.853Z,5.63
2017-11-05T05:59:15.791Z,5.63
2017-11-05T06:00:15.726Z,5.63
2017-11-05T06:01:15.676Z,5.63
2017-11-05T06:02:15.613Z,5.63
2017-11-05T06:03:15.559Z,5.63
2017-11-05T06:04:15.493Z,11.25
2017-11-05T06:05:15.438Z,11.25
2017-11-05T06:06:15.384Z,11.25
2017-11-05T06:07:15.328Z,11.25
2017-11-05T06:08:15.273Z,16.88
2017-11-05T06:09:15.202Z,16.88
2017-11-05T06:10:15.134Z,16.88
2017-11-05T06:11:15.073Z,22.50
2017-11-05T06:12:15.007Z,22.50
2017-11-05T06:13:14.949Z,28.13
2017-11-05T06:14:14.898Z,28.13
2017-11-05T06:15:14.837Z,33.75
2017-11-05T06:16:14.775Z,33.75
2017-11-05T06:17:14.718Z,39.38
2017-11-05T06:18:14.662Z,39.38
2017-11-05T06:19:14.611Z,45.00
2017-11-05T06:20:14.555Z,45.00
2017-11-05T06:21:14.475Z,50.63
2017-11-05T06:22:14.415Z,56.25
2017-11-05T06:23:14.359Z,61.88
2017-11-05T06:24:14.288Z,61.88
2017-11-05T06:25:14.236Z,67.50
2017-11-05T06:26:14.172Z,67.50
2017-11-05T06:27:14.113Z,73.13
2017-11-05T06:28:14.055Z,73.13
2017-11-05T06:29:13.999Z,78.75
2017-11-05T06:30:13.942Z,84.38
2017-11-05T06:31:13.887Z,84.38
2017-11-05T06:32:13.832Z,90.00
2017-11-05T06:33:13.759Z,95.63
2017-11-05T06:34:13.700Z,101.25
2017-11-05T06:35:13.639Z,106.88
2017-11-05T06:36:13.576Z,112.50
2017-11-05T06:37:13.514Z,118.13
2017-11-05T06:38:13.460Z,123.75
2017-11-05T06:39:13.393Z,123.75
2017-11-05T06:40:13.335Z,129.38
2017-11-05T06:41:13.277Z,135.00
2017-11-05T06:42:13.222Z,146.25
2017-11-05T06:43:13.166Z,151.88
2017-11-05T06:44:13.114Z,157.50
2017-11-05T06:45:13.056Z,163.13
2017-11-05T06:46:12.978Z,168.75
2017-11-05T06:47:12.916Z,174.38
2017-11-05T06:48:12.872Z,180.00
2017-11-05T06:49:12.793Z,180.00
2017-11-05T06:50:12.732Z,185.63
2017-11-05T06:51:12.676Z,191.25
2017-11-05T06:52:12.619Z,202.50
2017-11-05T06:53:12.559Z,208.13
2017-11-05T06:54:12.501Z,208.13
2017-11-05T06:55:12.445Z,213.75
2017-11-05T06:56:12.412Z,213.75
2017-11-05T06:57:12.315Z,213.75
2017-11-05T06:58:12.258Z,219.38
2017-11-05T06:59:12.211Z,225.00
2017-11-05T07:00:12.142Z,230.63
2017-11-05T07:01:12.080Z,241.88
2017-11-05T07:02:12.021Z,253.13
2017-11-05T07:03:11.957Z,270.00
2017-11-05T07:04:11.900Z,292.50
2017-11-05T07:05:11.841Z,309.38
2017-11-05T07:06:11.782Z,326.25
2017-11-05T07:07:11.741Z,337.50
2017-11-05T07:08:11.670Z,343.13
2017-11-05T07:09:11.615Z,343.13
2017-11-05T07:10:11.544Z,354.38
2017-11-05T07:11:11.486Z,365.63
2017-11-05T07:12:11.426Z,382.50
2017-11-05T07:13:11.369Z,388.13
2017-11-05T07:14:11.310Z,393.75
2017-11-05T07:15:11.241Z,399.38
2017-11-05T07:16:11.183Z,416.25
2017-11-05T07:17:11.125Z,421.88
2017-11-05T07:18:11.068Z,427.50
2017-11-05T07:19:11.013Z,433.13
2017-11-05T07:20:10.952Z,455.63
2017-11-05T07:21:10.895Z,472.50
2017-11-05T07:22:10.840Z,489.38
2017-11-05T07:23:10.785Z,506.25
2017-11-05T07:24:10.729Z,652.50
2017-11-05T07:25:10.675Z,759.38
2017-11-05T07:26:10.598Z,669.38
2017-11-05T07:27:10.541Z,590.63
2017-11-05T07:28:10.484Z,506.25
2017-11-05T07:29:10.423Z,472.50
2017-11-05T07:30:10.372Z,466.88
2017-11-05T07:31:10.299Z,523.13
2017-11-05T07:32:10.242Z,680.63
2017-11-05T07:33:10.185Z,787.50
2017-11-05T07:34:10.134Z,821.25
2017-11-05T07:35:10.073Z,849.38
2017-11-05T07:36:10.022Z,933.75
2017-11-05T07:37:09.958Z,990.00
2017-11-05T07:38:09.902Z,1051.88
2017-11-05T07:39:09.848Z,1068.75
2017-11-05T07:40:09.790Z,1175.63
2017-11-05T07:41:09.735Z,1215.00
2017-11-05T07:42:09.672Z,1260.00
2017-11-05T07:43:09.628Z,1271.25
2017-11-05T07:44:09.573Z,1265.63
2017-11-05T07:45:09.518Z,1265.63
2017-11-05T07:46:09.462Z,1316.25
2017-11-05T07:47:09.407Z,1462.50
2017-11-05T07:48:09.338Z,1530.00
2017-11-05T07:49:09.278Z,1586.25
2017-11-05T07:50:09.223Z,1558.13
2017-11-05T07:51:09.169Z,1608.75
2017-11-05T07:52:09.114Z,1653.75
2017-11-05T07:53:09.060Z,1597.50
2017-11-05T07:54:09.025Z,1670.63
2017-11-05T07:55:08.952Z,1648.13
2017-11-05T07:56:08.895Z,1507.50
2017-11-05T07:57:08.860Z,1220.63
2017-11-05T07:58:08.806Z,517.50
2017-11-05T07:59:08.752Z,506.25
2017-11-05T08:00:08.696Z,495.00
2017-11-05T08:01:08.641Z,500.63
2017-11-05T08:02:08.586Z,478.13
2017-11-05T08:03:08.532Z,478.13
2017-11-05T08:04:08.478Z,489.38
2017-11-05T08:05:08.422Z,523.13
2017-11-05T08:06:08.368Z,1091.25
2017-11-05T08:07:08.314Z,933.75
2017-11-05T08:08:08.260Z,568.13
2017-11-05T08:09:08.205Z,410.63
2017-11-05T08:10:08.154Z,360.00
2017-11-05T08:11:08.095Z,337.50
2017-11-05T08:12:08.041Z,444.38
2017-11-05T08:13:07.986Z,416.25
2017-11-05T08:14:07.932Z,500.63
2017-11-05T08:15:07.878Z,478.13
2017-11-05T08:16:07.822Z,393.75
2017-11-05T08:17:07.768Z,371.25
2017-11-05T08:18:07.714Z,376.88
2017-11-05T08:19:07.659Z,388.13
2017-11-05T08:20:07.604Z,354.38
2017-11-05T08:21:07.548Z,331.88
2017-11-05T08:22:07.494Z,331.88
2017-11-05T08:23:07.445Z,337.50
2017-11-05T08:24:07.385Z,337.50
2017-11-05T08:25:07.330Z,343.13
2017-11-05T08:26:07.275Z,343.13
2017-11-05T08:27:07.219Z,337.50
2017-11-05T08:28:07.170Z,337.50
2017-11-05T08:29:07.109Z,320.63
2017-11-05T08:30:07.055Z,286.88
2017-11-05T08:31:07.003Z,264.38
2017-11-05T08:32:06.950Z,247.50
2017-11-05T08:33:06.891Z,247.50
2017-11-05T08:34:06.837Z,270.00
2017-11-05T08:35:06.782Z,303.75
2017-11-05T08:36:06.726Z,343.13
2017-11-05T08:37:06.673Z,388.13
2017-11-05T08:38:06.602Z,416.25
2017-11-05T08:39:06.541Z,427.50
2017-11-05T08:40:06.489Z,438.75
2017-11-05T08:41:06.428Z,438.75
2017-11-05T08:42:06.373Z,444.38
2017-11-05T08:43:06.315Z,455.63
2017-11-05T08:44:06.256Z,483.75
2017-11-05T08:45:06.202Z,500.63
2017-11-05T08:46:06.146Z,489.38
2017-11-05T08:47:06.093Z,466.88
2017-11-05T08:48:06.033Z,433.13
2017-11-05T08:49:05.986Z,410.63
2017-11-05T08:50:05.915Z,421.88
2017-11-05T08:51:05.860Z,410.63
2017-11-05T08:52:05.810Z,410.63
2017-11-05T08:53:05.747Z,416.25
2017-11-05T08:54:05.689Z,433.13
2017-11-05T08:55:05.638Z,450.00
2017-11-05T08:56:05.576Z,466.88
2017-11-05T08:57:05.524Z,455.63
2017-11-05T08:58:05.472Z,450.00
2017-11-05T08:59:05.419Z,466.88
2017-11-05T09:00:05.353Z,472.50
2017-11-05T09:01:05.296Z,461.25
2017-11-05T09:02:05.241Z,438.75
2017-11-05T09:03:05.206Z,410.63
2017-11-05T09:04:05.131Z,382.50
2017-11-05T09:05:05.081Z,354.38
2017-11-05T09:06:05.022Z,320.63
2017-11-05T09:07:04.953Z,286.88
2017-11-05T09:08:04.913Z,258.75
2017-11-05T09:09:04.862Z,225.00
2017-11-05T09:10:04.803Z,202.50
2017-11-05T09:11:04.728Z,196.88
2017-11-05T09:12:04.670Z,208.13
2017-11-05T09:13:04.615Z,230.63
2017-11-05T09:14:04.556Z,253.13
2017-11-05T09:15:04.503Z,258.75
2017-11-05T09:16:04.444Z,275.63
2017-11-05T09:17:04.387Z,286.88
2017-11-05T09:18:04.330Z,286.88
2017-11-05T09:19:04.273Z,303.75
2017-11-05T09:20:04.208Z,326.25
2017-11-05T09:21:04.153Z,354.38
2017-11-05T09:22:04.096Z,365.63
2017-11-05T09:23:04.040Z,371.25
2017-11-05T09:24:03.982Z,371.25
2017-11-05T09:25:03.931Z,376.88
2017-11-05T09:26:03.872Z,376.88
2017-11-05T09:27:03.819Z,376.88
2017-11-05T09:28:03.758Z,388.13
2017-11-05T09:29:03.712Z,399.38
2017-11-05T09:30:03.647Z,405.00
2017-11-05T09:31:03.592Z,405.00
2017-11-05T09:32:03.537Z,393.75
2017-11-05T09:33:03.481Z,393.75
2017-11-05T09:34:03.430Z,393.75
2017-11-05T09:35:03.371Z,382.50
2017-11-05T09:36:03.316Z,360.00
2017-11-05T09:37:03.262Z,326.25
2017-11-05T09:38:03.207Z,286.88
2017-11-05T09:39:03.134Z,264.38
2017-11-05T09:40:03.076Z,258.75
2017-11-05T09:41:03.019Z,258.75
2017-11-05T09:42:02.960Z,253.13
2017-11-05T09:43:02.908Z,253.13
2017-11-05T09:44:02.843Z,264.38
2017-11-05T09:45:02.792Z,292.50
2017-11-05T09:46:02.748Z,320.63
2017-11-05T09:47:02.676Z,337.50
2017-11-05T09:48:02.613Z,343.13
2017-11-05T09:49:02.565Z,337.50
2017-11-05T09:50:02.504Z,337.50
2017-11-05T09:51:02.450Z,354.38
2017-11-05T09:52:02.390Z,360.00
2017-11-05T09:53:02.333Z,354.38
2017-11-05T09:54:02.280Z,348.75
2017-11-05T09:55:02.220Z,348.75
2017-11-05T09:56:02.165Z,343.13
2017-11-05T09:57:02.108Z,331.88
2017-11-05T09:58:02.065Z,331.88
2017-11-05T09:59:01.995Z,326.25
2017-11-05T10:00:01.942Z,337.50
2017-11-05T10:01:01.880Z,343.13
2017-11-05T10:02:01.832Z,348.75
2017-11-05T10:03:01.785Z,337.50
2017-11-05T10:04:01.722Z,320.63
2017-11-05T10:05:01.669Z,309.38
2017-11-05T10:06:01.594Z,298.13
2017-11-05T10:07:01.556Z,292.50
2017-11-05T10:08:01.480Z,292.50
2017-11-05T10:09:01.448Z,309.38
2017-11-05T10:10:01.367Z,326.25
2017-11-05T10:11:01.309Z,337.50
2017-11-05T10:12:01.254Z,337.50
2017-11-05T10:13:01.198Z,326.25
2017-11-05T10:14:01.138Z,309.38
2017-11-05T10:15:01.084Z,303.75
2017-11-05T10:16:01.019Z,281.25
2017-11-05T10:17:00.965Z,281.25
2017-11-05T10:18:00.912Z,303.75
2017-11-05T10:19:00.858Z,320.63
2017-11-05T10:20:00.799Z,320.63
2017-11-05T10:21:00.738Z,326.25
2017-11-05T10:22:00.682Z,331.88
2017-11-05T10:23:00.626Z,337.50
2017-11-05T10:24:00.571Z,343.13
2017-11-05T10:25:00.514Z,337.50
2017-11-05T10:26:00.457Z,337.50
2017-11-05T10:27:00.402Z,337.50
2017-11-05T10:28:00.347Z,343.13
2017-11-05T10:29:00.290Z,348.75
2017-11-05T10:30:00.240Z,348.75
2017-11-05T10:31:00.182Z,354.38
2017-11-05T10:32:00.126Z,360.00
2017-11-05T10:33:00.072Z,371.25
2017-11-05T10:34:00.055Z,360.00
2017-11-05T10:34:59.944Z,326.25
2017-11-05T10:35:59.895Z,298.13
2017-11-05T10:36:59.828Z,286.88
2017-11-05T10:37:59.781Z,281.25
2017-11-05T10:38:59.728Z,264.38
2017-11-05T10:39:59.660Z,241.88
2017-11-05T10:40:59.607Z,213.75
2017-11-05T10:41:59.550Z,196.88
2017-11-05T10:42:59.496Z,180.00
2017-11-05T10:43:59.442Z,157.50
2017-11-05T10:44:59.371Z,146.25
2017-11-05T10:45:59.315Z,135.00
2017-11-05T10:46:59.261Z,135.00
2017-11-05T10:47:59.202Z,135.00
2017-11-05T10:48:59.148Z,135.00
2017-11-05T10:49:59.104Z,146.25
2017-11-05T10:50:59.036Z,157.50
2017-11-05T10:51:58.978Z,163.13
2017-11-05T10:52:58.922Z,163.13
2017-11-05T10:53:58.869Z,168.75
2017-11-05T10:54:58.810Z,174.38
2017-11-05T10:55:58.753Z,185.63
2017-11-05T10:56:58.697Z,191.25
2017-11-05T10:57:58.642Z,196.88
2017-11-05T10:58:58.595Z,196.88
2017-11-05T10:59:58.525Z,191.25
2017-11-05T11:00:58.478Z,174.38
2017-11-05T11:01:58.423Z,168.75
2017-11-05T11:02:58.369Z,168.75
2017-11-05T11:03:58.314Z,174.38
2017-11-05T11:04:58.234Z,180.00
2017-11-05T11:05:58.182Z,180.00
2017-11-05T11:06:58.137Z,185.63
2017-11-05T11:07:58.067Z,174.38
2017-11-05T11:08:58.012Z,168.75
2017-11-05T11:09:57.959Z,180.00
2017-11-05T11:10:57.900Z,191.25
2017-11-05T11:11:57.838Z,196.88
2017-11-05T11:12:57.774Z,202.50
2017-11-05T11:13:57.717Z,202.50
2017-11-05T11:14:57.668Z,213.75
2017-11-05T11:15:57.606Z,230.63
2017-11-05T11:16:57.563Z,241.88
2017-11-05T11:17:57.495Z,230.63
2017-11-05T11:18:57.439Z,213.75
2017-11-05T11:19:57.387Z,208.13
2017-11-05T11:20:57.324Z,191.25
2017-11-05T11:21:57.267Z,180.00
2017-11-05T11:22:57.215Z,196.88
2017-11-05T11:23:57.160Z,191.25
2017-11-05T11:24:57.107Z,180.00
2017-11-05T11:25:57.053Z,174.38
2017-11-05T11:26:56.993Z,185.63
2017-11-05T11:27:56.938Z,191.25
2017-11-05T11:28:56.882Z,196.88
2017-11-05T11:29:56.810Z,191.25
2017-11-05T11:30:56.775Z,157.50
2017-11-05T11:31:56.693Z,129.38
2017-11-05T11:32:56.639Z,123.75
2017-11-05T11:33:56.583Z,112.50
2017-11-05T11:34:56.526Z,95.63
2017-11-05T11:35:56.468Z,95.63
2017-11-05T11:36:56.413Z,101.25
2017-11-05T11:37:56.356Z,112.50
2017-11-05T11:38:56.309Z,123.75
2017-11-05T11:39:56.236Z,140.63
2017-11-05T11:40:56.189Z,151.88
2017-11-05T11:41:56.147Z,163.13
2017-11-05T11:42:56.067Z,168.75
2017-11-05T11:43:56.010Z,168.75
2017-11-05T11:44:55.964Z,185.63
2017-11-05T11:45:55.916Z,174.38
2017-11-05T11:46:55.847Z,151.88
2017-11-05T11:47:55.781Z,140.63
2017-11-05T11:48:55.736Z,135.00
2017-11-05T11:49:55.673Z,146.25
2017-11-05T11:50:55.617Z,151.88
2017-11-05T11:51:55.563Z,185.63
2017-11-05T11:52:55.511Z,213.75
2017-11-05T11:53:55.452Z,236.25
2017-11-05T11:54:55.398Z,253.13
2017-11-05T11:55:55.347Z,258.75
2017-11-05T11:56:55.275Z,258.75
2017-11-05T11:57:55.218Z,258.75
2017-11-05T11:58:55.163Z,247.50
2017-11-05T11:59:55.101Z,225.00
2017-11-05T12:00:55.046Z,174.38
2017-11-05T12:01:54.989Z,208.13
2017-11-05T12:02:54.934Z,202.50
2017-11-05T12:03:54.875Z,196.88
2017-11-05T12:04:54.820Z,191.25
2017-11-05T12:05:54.760Z,185.63
2017-11-05T12:06:54.703Z,191.25
2017-11-05T12:07:54.642Z,202.50
2017-11-05T12:08:54.585Z,202.50
2017-11-05T12:09:54.533Z,191.25
2017-11-05T12:10:54.472Z,180.00
2017-11-05T12:11:54.417Z,185.63
2017-11-05T12:12:54.361Z,208.13
2017-11-05T12:13:54.308Z,247.50
2017-11-05T12:14:54.254Z,264.38
2017-11-05T12:15:54.194Z,270.00
2017-11-05T12:16:54.138Z,258.75
2017-11-05T12:17:54.079Z,241.88
2017-11-05T12:18:54.025Z,236.25
2017-11-05T12:19:53.968Z,230.63
2017-11-05T12:20:53.916Z,225.00
2017-11-05T12:21:53.858Z,225.00
2017-11-05T12:22:53.806Z,230.63
2017-11-05T12:23:53.750Z,236.25
2017-11-05T12:24:53.694Z,241.88
2017-11-05T12:25:53.640Z,241.88
2017-11-05T12:29:24.573Z,264.38
2017-11-05T12:30:24.488Z,275.63
2017-11-05T12:32:16.293Z,286.88
2017-11-05T12:33:16.230Z,292.50
2017-11-05T12:35:08.001Z,292.50
2017-11-05T12:36:07.936Z,286.88
2017-11-05T12:37:59.686Z,292.50
2017-11-05T12:38:59.630Z,298.13
2017-11-05T12:40:51.405Z,309.38
2017-11-05T12:41:51.353Z,315.00
2017-11-05T12:43:43.098Z,309.38
2017-11-05T12:44:43.034Z,309.38
2017-11-05T12:46:34.792Z,298.13
2017-11-05T12:47:34.733Z,281.25
2017-11-05T12:49:26.507Z,275.63
2017-11-05T12:50:26.445Z,270.00
2017-11-05T12:52:18.191Z,270.00
2017-11-05T12:53:18.135Z,247.50
2017-11-05T12:55:09.917Z,180.00
2017-11-05T12:56:09.842Z,180.00
2017-11-05T12:58:01.603Z,196.88
2017-11-05T12:59:01.542Z,191.25
2017-11-05T13:00:53.310Z,180.00
2017-11-05T13:01:53.248Z,185.63
2017-11-05T13:03:45.011Z,180.00